Paradise, Montana
Current Conditions -  °F | °C
As of 8:53 PM on Wednesday 17 Dec 2014 (Local Time) from KMLP Reporting Station
Overcast Overcast  
Wind Chill: 27°   Ceiling: 200
Heat Index: 27°   Visibility: 9mi
Dew Point: 27°   Wind: 3mph
Humidity: 100%   Direction: NA
Pressure: 29.88"   Gusts: NA
Location:  47.39°N, 114.8°W
Report Text: KMLP 180353Z AUTO VRB03KT 9SM OVC002 M03/M03 A2988 RMK AO2 SNE06B29E49 SLP150 P0000 T10281028
Loading
Personal Weather Stations






























Interactive Weather Map New forecast layout! Learn more

10-Day Weather Forecast

Advertisements
Track Severe Weather on mobile